Dorchester, NE (68343)

4:46 PM CST on December 19, 2014 (GMT -0600)
3 Miles East of Friend | Change Station
CLOSE
Current Station
Personal Weather Station
Location: Friend, NE
Elevation: 1531 ft
Nearby Weather Stations

Elev 1531 ft 40.66 °N, 97.22 °W | Updated 1 second ago

Overcast
Overcast
32.9 °F
Feels Like 25 °F
N
9.1
Wind Variable Wind from South
Gusts 11.5 mph

Today
High -- | Low -- °F
--% Chance of Precip.
Yesterday
High -- | Low -- °F
Precip. -- in
7:47 AM 5:03 PM
Waning Crescent, 6% visible
Pressure 30.14 in
Visibility 6.0 miles
Clouds Overcast 1400 ft
Windchill 25 °F
Dew Point 30 °F
Humidity 88%
Rainfall 0.00 in
Snow Depth Not available.
UV 0.0 out of 12
Pollen .10 out of 12
Air Quality Not available.
Flu Activity Not available.
SPECI KLNK 192218Z 18009KT 6SM BR OVC014 01/M01 A3014 RMK AO2 T00111011

More Conditions Fewer Conditions

Pressure 30.14 in
Visibility 6.0 miles
Clouds Overcast 1400 ft
Windchill 25 °F
Dew Point 30 °F
Humidity 88%
Rainfall 0.00 in
Snow Depth Not available.
UV 0.0 out of 12
Pollen .10 out of 12
Air Quality Not available.
Flu Activity Not available.
SPECI KLNK 192218Z 18009KT 6SM BR OVC014 01/M01 A3014 RMK AO2 T00111011

More Conditions Fewer Conditions

10-Day Weather Forecast

Almanac

Astronomy

Dec. 19, 2014 Rise Set
Actual Time
Civil Twilight
Nautical Twilight
Astronomical Twilight
Moon
Length of Visible Light
Length of Day
Tomorrow will be .
, % of the Moon is Illuminated

Today's Extremes

State Highs State Lows

Community

WunderPhotos

Upload Photos

1,779,071 photos uploaded!

WunderBlogs® & News

Nearby

Air Quality

  Air Quality AQ Index Pollutant
Not available.

Snow Depth

Station Depth Elevation

Earthquake Activity

City Distance Mag. Time & Date
Minimum magnitude displayed is 2.5.

Coastal Water Temperatures

Place Temperature

Nearby Weather Stations